Ambleve, Belgium
Current Conditions -  °F | °C
As of 10:25 AM on Monday 20 Oct 2014 (Local Time) from EBLB Reporting Station
Broken Clouds Broken Clouds  
Wind Chill: 52°   Ceiling: 1500
Heat Index: 52°   Visibility: 6mi
Dew Point: 48°   Wind: 10mph
Humidity: 88%   Direction: 270°W
Pressure: 30.09"   Gusts: NA
Location:  50.35°N, 6.17°E
Report Text: EBLB 200825Z 27009KT 9999 SCT010 BKN015 BKN019 11/09 Q1019 GRN
Loading
Personal Weather Stations






























Interactive Weather Map
Tropical Storm Tracking
New forecast layout! Learn more

10-Day Weather Forecast

Advertisements
Track Severe Weather on mobile